Time;durP1;ratioP1;P1;durP2;ratioP2;P2;SDS_P1;SDS_P2;PMS_P1;PMS_P2;Temp;Humidity;BMP_temperature;BMP_pressure;BME280_temperature;BME280_humidity;BME280_pressure;Samples;Min_cycle;Max_cycle;Signal;HPM_P1;HPM_P2
2023/03/09 00:00:15;;;;;;;2.63;1.67;;;;;;;13.43;67.40;95062.75;5048322;28;20183;-69
2023/03/09 00:02:41;;;;;;;3.43;1.70;;;;;;;13.38;67.52;95058.13;5044510;28;20236;-70
2023/03/09 00:05:11;;;;;;;3.93;1.70;;;;;;;13.31;67.72;95050.31;5049574;28;20429;-69
2023/03/09 00:07:36;;;;;;;4.63;1.90;;;;;;;13.37;67.68;95057.31;5051138;28;20913;-69
2023/03/09 00:10:03;;;;;;;5.97;1.50;;;;;;;13.31;67.87;95055.56;5045297;28;20457;-69
2023/03/09 00:12:28;;;;;;;2.00;1.57;;;;;;;13.37;68.00;95070.44;5054597;28;20221;-71
2023/03/09 00:14:55;;;;;;;2.57;1.60;;;;;;;13.25;68.63;95082.75;5045773;28;20934;-70
2023/03/09 00:17:20;;;;;;;3.43;1.80;;;;;;;13.27;68.46;95109.63;5046089;28;20276;-69
2023/03/09 00:19:46;;;;;;;7.67;1.80;;;;;;;13.02;69.87;95118.41;5047663;28;20969;-70
2023/03/09 00:22:11;;;;;;;3.17;1.50;;;;;;;12.82;70.80;95130.94;5051895;28;20218;-69
2023/03/09 00:24:45;;;;;;;4.13;1.20;;;;;;;12.93;69.84;95137.31;5046933;28;20198;-69
2023/03/09 00:27:11;;;;;;;2.37;1.83;;;;;;;12.96;70.37;95135.06;5043107;28;20237;-69
2023/03/09 00:29:36;;;;;;;1.77;1.20;;;;;;;13.01;70.53;95153.59;5048168;28;20421;-70
2023/03/09 00:32:02;;;;;;;3.40;1.33;;;;;;;13.23;69.74;95153.19;5048056;28;20457;-70
2023/03/09 00:34:27;;;;;;;1.80;1.20;;;;;;;13.25;69.65;95142.44;5047564;28;20191;-71
2023/03/09 00:36:53;;;;;;;2.23;1.10;;;;;;;13.32;69.45;95157.13;5056568;28;20210;-70
2023/03/09 00:39:19;;;;;;;1.67;1.20;;;;;;;13.24;69.30;95173.19;5039315;28;20218;-70
2023/03/09 00:41:45;;;;;;;3.30;1.10;;;;;;;13.13;68.45;95172.09;5046934;28;20265;-70
2023/03/09 00:44:12;;;;;;;1.10;0.90;;;;;;;13.15;67.58;95174.50;5040030;28;20271;-69
2023/03/09 00:46:38;;;;;;;2.67;0.90;;;;;;;13.25;67.00;95187.94;5051773;28;20454;-70
2023/03/09 00:49:05;;;;;;;1.40;0.80;;;;;;;13.06;66.73;95195.84;5044871;28;20426;-69
2023/03/09 00:51:32;;;;;;;2.00;0.80;;;;;;;13.13;65.96;95181.81;5052688;28;20198;-70
2023/03/09 00:53:58;;;;;;;1.67;0.80;;;;;;;13.00;66.23;95177.50;5038849;28;20931;-69
2023/03/09 00:56:25;;;;;;;1.10;0.70;;;;;;;13.03;65.54;95172.59;5045517;28;20483;-68
2023/03/09 00:58:51;;;;;;;0.90;0.70;;;;;;;13.13;65.08;95181.81;5046665;28;20274;-69
2023/03/09 01:01:17;;;;;;;0.80;0.60;;;;;;;13.04;64.57;95178.69;5051612;28;20871;-69
2023/03/09 01:03:43;;;;;;;1.17;0.60;;;;;;;13.14;64.22;95193.94;5040323;28;20446;-68
2023/03/09 01:06:09;;;;;;;1.80;0.60;;;;;;;13.13;63.96;95198.41;5037445;28;20183;-68
2023/03/09 01:08:34;;;;;;;0.90;0.60;;;;;;;12.88;64.68;95198.41;5033845;28;20613;-68
2023/03/09 01:11:00;;;;;;;1.70;0.50;;;;;;;12.86;63.53;95206.53;5035217;28;20740;-70
2023/03/09 01:13:26;;;;;;;0.77;0.40;;;;;;;12.69;61.72;95226.47;5047690;28;20260;-68
2023/03/09 01:15:52;;;;;;;1.30;0.70;;;;;;;12.72;61.81;95228.69;5050164;28;20223;-68
2023/03/09 01:18:17;;;;;;;0.90;0.57;;;;;;;12.72;61.41;95192.72;5044621;28;20207;-68
2023/03/09 01:20:43;;;;;;;1.57;0.60;;;;;;;12.63;61.18;95203.69;5037243;28;20186;-68
2023/03/09 01:23:08;;;;;;;1.00;0.60;;;;;;;12.57;61.56;95193.00;5048149;28;20211;-68
2023/03/09 01:25:34;;;;;;;0.90;0.57;;;;;;;12.71;60.86;95180.59;5046745;28;20174;-68
2023/03/09 01:27:59;;;;;;;1.07;0.50;;;;;;;12.39;61.14;95177.97;5059823;28;20550;-68
2023/03/09 01:30:24;;;;;;;1.30;0.50;;;;;;;12.52;60.99;95189.41;5051194;28;20187;-68
2023/03/09 01:32:50;;;;;;;2.20;0.50;;;;;;;12.62;61.26;95191.56;5057171;28;20245;-68
2023/03/09 01:35:15;;;;;;;2.50;0.73;;;;;;;12.54;61.62;95209.19;5048358;28;20179;-68
2023/03/09 01:37:41;;;;;;;0.73;0.40;;;;;;;12.42;61.89;95209.09;5043382;28;20206;-68
2023/03/09 01:40:10;;;;;;;1.10;0.50;;;;;;;12.34;61.89;95219.84;5052267;28;20625;-68
2023/03/09 01:42:36;;;;;;;5.03;0.60;;;;;;;12.34;62.45;95211.16;5053843;28;20533;-68
2023/03/09 01:45:20;;;;;;;1.27;0.60;;;;;;;12.49;62.54;95206.41;5048690;28;20878;-68
2023/03/09 01:47:46;;;;;;;0.80;0.50;;;;;;;12.34;63.26;95200.66;5047350;28;20409;-69
2023/03/09 01:50:13;;;;;;;1.10;0.70;;;;;;;12.36;63.24;95211.75;5049569;28;20455;-69
2023/03/09 01:52:40;;;;;;;0.90;0.50;;;;;;;12.28;63.37;95205.75;5047986;28;20198;-69
2023/03/09 01:55:10;;;;;;;0.83;0.50;;;;;;;12.31;63.55;95212.41;5050401;28;20427;-69
2023/03/09 01:57:42;;;;;;;1.00;0.50;;;;;;;12.22;63.34;95213.66;5059822;28;20467;-70
2023/03/09 02:00:25;;;;;;;1.80;0.50;;;;;;;12.25;63.28;95228.97;5056580;28;20422;-69
2023/03/09 02:02:55;;;;;;;2.13;0.70;;;;;;;12.09;63.22;95217.16;5042322;28;20441;-69
2023/03/09 02:05:29;;;;;;;3.53;0.70;;;;;;;12.20;63.83;95211.22;5051174;28;21092;-68
2023/03/09 02:07:56;;;;;;;0.73;0.40;;;;;;;12.31;63.15;95203.69;5060294;28;20405;-68
2023/03/09 02:10:32;;;;;;;1.17;0.70;;;;;;;12.23;62.89;95186.38;5047802;28;20428;-69
2023/03/09 02:13:02;;;;;;;1.50;0.50;;;;;;;11.84;62.92;95175.88;5050698;28;20438;-68
2023/03/09 02:15:27;;;;;;;0.80;0.50;;;;;;;12.14;62.78;95178.75;5053085;28;20505;-68
2023/03/09 02:17:53;;;;;;;0.80;0.50;;;;;;;12.25;61.83;95192.22;5054989;28;20572;-68
2023/03/09 02:20:26;;;;;;;1.90;0.50;;;;;;;12.19;62.01;95193.88;5059786;28;20190;-69
2023/03/09 02:22:52;;;;;;;0.80;0.50;;;;;;;12.26;62.06;95199.09;5050328;28;20228;-69
2023/03/09 02:25:30;;;;;;;1.20;0.70;;;;;;;12.10;61.86;95195.94;5046842;28;20974;-68
2023/03/09 02:27:56;;;;;;;0.90;0.50;;;;;;;12.20;62.34;95189.44;5055554;28;20785;-69
2023/03/09 02:30:23;;;;;;;1.63;0.60;;;;;;;11.87;62.43;95200.88;5042870;28;20513;-69
2023/03/09 02:32:49;;;;;;;1.47;0.50;;;;;;;12.02;62.13;95193.56;5050978;28;20224;-69
2023/03/09 02:35:14;;;;;;;1.80;0.60;;;;;;;11.84;62.52;95192.41;5051984;28;20858;-69
2023/03/09 02:37:40;;;;;;;0.90;0.50;;;;;;;11.80;62.80;95191.22;5054600;28;20211;-68
2023/03/09 02:40:13;;;;;;;1.10;0.50;;;;;;;11.68;62.82;95188.44;5055035;28;20257;-67
2023/03/09 02:42:39;;;;;;;1.27;0.50;;;;;;;12.04;62.24;95188.91;5055810;28;20194;-68
2023/03/09 02:45:06;;;;;;;1.20;0.50;;;;;;;11.83;62.52;95185.56;5055308;28;20512;-69
2023/03/09 02:47:32;;;;;;;0.80;0.50;;;;;;;11.84;63.19;95187.16;5049013;28;20174;-69
2023/03/09 02:49:57;;;;;;;0.80;0.50;;;;;;;11.83;62.99;95184.75;5047540;28;20444;-68
2023/03/09 02:52:23;;;;;;;0.93;0.50;;;;;;;11.84;63.24;95195.03;5054141;28;20207;-68
2023/03/09 02:54:48;;;;;;;1.90;0.60;;;;;;;12.00;62.58;95206.09;5047584;28;20187;-67
2023/03/09 02:57:14;;;;;;;1.87;0.60;;;;;;;11.95;62.67;95232.16;5048593;28;20565;-69
2023/03/09 02:59:39;;;;;;;0.80;0.60;;;;;;;11.84;63.38;95229.16;5045663;28;20175;-68
2023/03/09 03:02:05;;;;;;;1.40;0.83;;;;;;;11.93;63.34;95226.31;5059588;28;20221;-70
2023/03/09 03:04:31;;;;;;;1.27;0.60;;;;;;;11.97;63.14;95238.00;5050048;28;20270;-68
2023/03/09 03:06:56;;;;;;;4.07;0.80;;;;;;;11.87;64.06;95248.13;5052088;28;20178;-68
2023/03/09 03:09:22;;;;;;;1.63;0.60;;;;;;;12.07;63.41;95248.88;5051380;28;20182;-67
2023/03/09 03:11:47;;;;;;;0.80;0.53;;;;;;;12.06;63.64;95268.28;5051425;28;20183;-67
2023/03/09 03:14:13;;;;;;;2.10;0.70;;;;;;;12.12;63.62;95287.63;5059609;28;20179;-68
2023/03/09 03:16:38;;;;;;;2.90;0.70;;;;;;;12.25;63.62;95292.00;5064197;28;20293;-67
2023/03/09 03:19:04;;;;;;;2.17;1.20;;;;;;;12.31;63.79;95306.13;5061782;28;20236;-68
2023/03/09 03:21:29;;;;;;;1.77;0.60;;;;;;;12.33;63.92;95317.22;5053240;28;20179;-68
2023/03/09 03:23:54;;;;;;;2.17;0.70;;;;;;;12.42;63.60;95322.03;5050140;28;20798;-68
2023/03/09 03:26:20;;;;;;;1.10;0.70;;;;;;;12.44;63.76;95337.56;5066183;28;20396;-68
2023/03/09 03:28:45;;;;;;;1.93;0.60;;;;;;;12.50;63.34;95352.53;5052393;28;20183;-69
2023/03/09 03:31:11;;;;;;;2.77;0.63;;;;;;;12.52;63.83;95386.44;5046521;28;20278;-68
2023/03/09 03:33:37;;;;;;;2.70;0.60;;;;;;;12.50;63.90;95393.72;5060760;28;20198;-68
2023/03/09 03:36:03;;;;;;;1.43;0.60;;;;;;;12.47;63.55;95397.59;5060318;28;20175;-69
2023/03/09 03:38:28;;;;;;;2.10;0.50;;;;;;;12.46;63.21;95392.56;5066625;28;20236;-68
2023/03/09 03:40:54;;;;;;;0.80;0.60;;;;;;;12.39;62.77;95392.59;5053505;28;20274;-69
2023/03/09 03:43:20;;;;;;;0.80;0.50;;;;;;;12.44;62.65;95390.94;5051224;28;20695;-68
2023/03/09 03:45:45;;;;;;;0.73;0.47;;;;;;;12.44;62.32;95390.94;5055935;28;20182;-68
2023/03/09 03:48:10;;;;;;;2.40;0.50;;;;;;;12.43;62.32;95389.31;5058050;28;20202;-69
2023/03/09 03:50:36;;;;;;;0.90;0.50;;;;;;;12.38;61.79;95380.47;5057380;28;20213;-68
2023/03/09 03:53:02;;;;;;;1.40;0.60;;;;;;;12.37;61.59;95395.41;5051645;28;20778;-68
2023/03/09 03:55:27;;;;;;;1.10;0.70;;;;;;;12.25;61.08;95399.69;5059572;28;20202;-68
2023/03/09 03:57:53;;;;;;;1.10;0.60;;;;;;;12.27;60.40;95421.28;5055302;28;20209;-69
2023/03/09 04:00:19;;;;;;;1.53;0.70;;;;;;;12.28;60.08;95417.66;5050596;28;20215;-68
2023/03/09 04:02:44;;;;;;;1.83;0.80;;;;;;;12.25;60.45;95423.31;5059801;28;20847;-68
2023/03/09 04:05:10;;;;;;;3.23;0.77;;;;;;;12.23;60.22;95430.59;5058963;28;20413;-68
2023/03/09 04:07:35;;;;;;;2.70;0.83;;;;;;;12.24;60.51;95437.47;5042185;28;20188;-68
2023/03/09 04:10:01;;;;;;;1.80;0.87;;;;;;;12.20;60.55;95449.41;5050549;28;20213;-68
2023/03/09 04:12:26;;;;;;;2.90;1.00;;;;;;;12.22;60.47;95450.00;5050572;28;20207;-69
2023/03/09 04:14:52;;;;;;;5.53;1.23;;;;;;;12.21;60.61;95451.03;5052991;28;20307;-69
2023/03/09 04:17:17;;;;;;;4.10;1.10;;;;;;;12.19;60.68;95458.28;5037149;28;20290;-68
2023/03/09 04:19:43;;;;;;;6.23;1.40;;;;;;;12.05;60.36;95466.19;5055008;28;20274;-67
2023/03/09 04:22:09;;;;;;;3.07;1.00;;;;;;;12.18;60.17;95488.19;5049994;28;20277;-68
2023/03/09 04:24:34;;;;;;;5.97;1.40;;;;;;;12.17;60.05;95484.75;5054172;28;20329;-68
2023/03/09 04:27:00;;;;;;;5.00;1.30;;;;;;;12.19;60.44;95487.97;5051787;28;20856;-68
2023/03/09 04:29:25;;;;;;;7.33;1.40;;;;;;;12.20;60.46;95486.16;5047055;28;20202;-68
2023/03/09 04:31:51;;;;;;;6.57;1.20;;;;;;;12.06;60.01;95486.19;5065123;28;20314;-68
2023/03/09 04:34:16;;;;;;;8.97;2.60;;;;;;;12.11;60.17;95504.75;5051868;28;20232;-68
2023/03/09 04:36:42;;;;;;;7.40;2.70;;;;;;;12.19;59.83;95521.31;5042876;28;20593;-68
2023/03/09 04:39:07;;;;;;;5.17;1.57;;;;;;;12.20;59.61;95522.94;5044624;28;20270;-68
2023/03/09 04:41:33;;;;;;;6.10;1.57;;;;;;;12.18;59.28;95531.00;5047039;28;20210;-68
2023/03/09 04:43:58;;;;;;;4.50;1.63;;;;;;;12.14;59.43;95541.09;5049834;28;20257;-69
2023/03/09 04:46:24;;;;;;;6.83;1.70;;;;;;;12.14;59.43;95543.72;5051664;28;20197;-68
2023/03/09 04:48:49;;;;;;;6.23;1.80;;;;;;;12.16;59.12;95553.22;5040827;28;20208;-68
2023/03/09 04:51:15;;;;;;;5.37;1.67;;;;;;;12.21;58.97;95558.69;5055885;28;20607;-68
2023/03/09 04:53:40;;;;;;;10.77;1.80;;;;;;;12.27;58.74;95566.56;5056520;28;20249;-68
2023/03/09 04:56:06;;;;;;;9.10;1.80;;;;;;;12.28;59.02;95576.06;5052349;28;20181;-66
2023/03/09 04:58:31;;;;;;;10.63;1.93;;;;;;;12.26;58.84;95572.84;5033058;28;20753;-68
2023/03/09 05:00:57;;;;;;;9.07;1.60;;;;;;;12.21;58.50;95580.50;5051892;28;20274;-68
2023/03/09 05:03:22;;;;;;;4.90;1.60;;;;;;;12.22;58.32;95582.13;5048906;28;20862;-68
2023/03/09 05:05:48;;;;;;;9.00;2.37;;;;;;;12.16;57.92;95595.25;5048651;28;20262;-68
2023/03/09 05:08:13;;;;;;;9.63;1.80;;;;;;;12.18;58.11;95601.09;5046744;28;20267;-68
2023/03/09 05:10:39;;;;;;;5.93;1.73;;;;;;;12.17;58.05;95610.00;5058391;28;20244;-68
2023/03/09 05:13:04;;;;;;;5.30;1.90;;;;;;;12.18;57.69;95617.66;5051893;28;20726;-68
2023/03/09 05:15:30;;;;;;;5.10;1.60;;;;;;;12.17;58.13;95604.75;5054647;28;20649;-69
2023/03/09 05:17:55;;;;;;;9.47;2.00;;;;;;;12.17;57.64;95610.00;5044421;28;20290;-68
2023/03/09 05:20:21;;;;;;;6.27;1.87;;;;;;;12.19;57.45;95611.41;5055288;28;20257;-70
2023/03/09 05:22:46;;;;;;;4.90;1.20;;;;;;;12.20;57.32;95614.84;5051778;28;20203;-68
2023/03/09 05:25:12;;;;;;;5.13;1.50;;;;;;;12.22;57.57;95618.09;5047888;28;20228;-68
2023/03/09 05:27:37;;;;;;;5.30;1.80;;;;;;;12.24;57.66;95616.88;5048287;28;20233;-68
2023/03/09 05:30:03;;;;;;;3.27;1.40;;;;;;;12.28;57.66;95617.28;5045565;28;20214;-69
2023/03/09 05:32:29;;;;;;;7.83;1.43;;;;;;;12.31;57.35;95634.44;5047244;28;20211;-70
2023/03/09 05:34:54;;;;;;;10.33;2.43;;;;;;;12.33;57.35;95630.63;5041474;28;20258;-67
2023/03/09 05:37:19;;;;;;;7.23;1.80;;;;;;;12.36;57.73;95645.16;5048509;28;20229;-69
2023/03/09 05:39:45;;;;;;;4.57;1.80;;;;;;;12.32;57.72;95646.56;5054233;28;20236;-68
2023/03/09 05:42:10;;;;;;;4.23;1.50;;;;;;;12.36;57.62;95653.84;5050443;28;20230;-69
2023/03/09 05:44:36;;;;;;;7.30;1.87;;;;;;;12.38;57.82;95664.94;5047725;28;20678;-68
2023/03/09 05:47:01;;;;;;;11.63;1.73;;;;;;;12.43;57.44;95653.84;5048977;28;20547;-68
2023/03/09 05:49:30;;;;;;;4.80;1.40;;;;;;;12.46;57.39;95665.78;5042030;28;20209;-68
2023/03/09 05:51:57;;;;;;;5.47;2.33;;;;;;;12.46;57.60;95666.56;5040606;28;20914;-68
2023/03/09 05:54:22;;;;;;;7.83;1.80;;;;;;;12.47;57.25;95677.91;5053247;28;20444;-68
2023/03/09 05:56:48;;;;;;;7.63;1.80;;;;;;;12.48;56.99;95679.50;5045435;28;20547;-68
2023/03/09 05:59:13;;;;;;;6.50;1.70;;;;;;;12.41;57.12;95685.56;5053742;28;20191;-67
2023/03/09 06:01:39;;;;;;;7.80;2.00;;;;;;;12.41;57.38;95695.28;5045484;28;20210;-69
2023/03/09 06:04:04;;;;;;;9.77;1.83;;;;;;;12.48;57.26;95705.78;5039868;28;20854;-68
2023/03/09 06:06:30;;;;;;;8.27;2.10;;;;;;;12.53;57.07;95708.63;5054370;28;20182;-68
2023/03/09 06:08:55;;;;;;;8.17;1.50;;;;;;;12.56;56.93;95708.22;5047653;28;20261;-69
2023/03/09 06:11:21;;;;;;;6.17;2.10;;;;;;;12.53;57.05;95709.44;5054004;28;20188;-68
2023/03/09 06:13:46;;;;;;;9.83;1.80;;;;;;;12.57;56.93;95715.09;5053728;28;20195;-68
2023/03/09 06:16:15;;;;;;;5.27;2.00;;;;;;;12.55;56.87;95733.69;5042456;28;20183;-68
2023/03/09 06:18:41;;;;;;;11.50;1.70;;;;;;;12.61;56.90;95726.81;5045808;28;20631;-68
2023/03/09 06:21:07;;;;;;;8.83;2.00;;;;;;;12.61;56.68;95726.81;5054443;28;20449;-69
2023/03/09 06:23:35;;;;;;;4.07;1.40;;;;;;;12.66;56.75;95727.03;5047232;28;20438;-68
2023/03/09 06:26:05;;;;;;;5.50;1.90;;;;;;;12.65;56.95;95728.03;5037711;28;20183;-68
2023/03/09 06:28:31;;;;;;;5.00;1.93;;;;;;;12.73;56.50;95740.97;5039658;28;20441;-68
2023/03/09 06:30:56;;;;;;;8.83;2.30;;;;;;;12.75;56.79;95722.38;5039095;28;20799;-68
2023/03/09 06:33:22;;;;;;;7.27;1.67;;;;;;;12.75;56.70;95733.69;5035953;28;20531;-68
2023/03/09 06:35:47;;;;;;;6.27;1.80;;;;;;;12.73;57.33;95738.34;5055379;28;20171;-69
2023/03/09 06:38:13;;;;;;;9.90;2.23;;;;;;;12.77;56.84;95743.19;5054838;28;20277;-69
2023/03/09 06:40:38;;;;;;;9.67;2.53;;;;;;;12.68;57.11;95738.16;5055982;28;20183;-68
2023/03/09 06:43:04;;;;;;;9.03;2.13;;;;;;;12.66;57.63;95734.91;5053734;28;20719;-68
2023/03/09 06:45:29;;;;;;;6.27;1.80;;;;;;;12.68;57.49;95745.22;5057953;28;20694;-69
2023/03/09 06:47:56;;;;;;;4.80;1.90;;;;;;;12.70;57.67;95745.81;5054431;28;20210;-68
2023/03/09 06:50:23;;;;;;;7.80;1.97;;;;;;;12.64;57.78;95744.00;5054536;28;20187;-69
2023/03/09 06:52:49;;;;;;;7.43;2.10;;;;;;;12.57;57.91;95744.00;5053849;28;21176;-69
2023/03/09 06:55:14;;;;;;;8.90;2.03;;;;;;;12.56;57.76;95755.53;5049960;28;20425;-69
2023/03/09 06:57:40;;;;;;;6.93;1.90;;;;;;;12.63;58.11;95758.97;5064979;28;20289;-69
2023/03/09 07:00:07;;;;;;;7.27;2.07;;;;;;;12.64;57.68;95757.94;5054652;28;20541;-68
2023/03/09 07:02:32;;;;;;;4.73;1.90;;;;;;;12.65;57.53;95764.81;5053856;28;20210;-68
2023/03/09 07:04:58;;;;;;;7.40;2.00;;;;;;;12.57;57.72;95784.22;5054778;28;20467;-68
2023/03/09 07:07:23;;;;;;;5.60;1.63;;;;;;;12.59;58.02;95781.41;5054718;28;20240;-68
2023/03/09 07:09:49;;;;;;;5.30;1.60;;;;;;;12.53;58.29;95783.03;5052350;28;20179;-68
2023/03/09 07:12:15;;;;;;;10.93;2.50;;;;;;;12.51;58.26;95789.47;5061862;28;20233;-68
2023/03/09 07:14:40;;;;;;;7.70;2.13;;;;;;;12.62;58.35;95783.63;5051787;28;20186;-69
2023/03/09 07:17:05;;;;;;;4.47;1.87;;;;;;;12.73;57.69;95782.22;5044059;28;20231;-68
2023/03/09 07:19:31;;;;;;;10.87;1.50;;;;;;;12.69;57.71;95804.66;5059215;28;20179;-69
2023/03/09 07:21:56;;;;;;;5.63;1.70;;;;;;;12.70;57.38;95803.66;5054249;28;20179;-67
2023/03/09 07:24:22;;;;;;;9.20;2.00;;;;;;;12.91;57.11;95805.31;5054410;28;20263;-71
2023/03/09 07:26:48;;;;;;;7.43;1.83;;;;;;;12.92;56.53;95814.81;5052221;28;20202;-70
2023/03/09 07:29:14;;;;;;;6.47;1.37;;;;;;;12.91;56.67;95815.81;5045045;28;20711;-70
2023/03/09 07:31:39;;;;;;;6.03;1.93;;;;;;;13.03;56.51;95822.09;5051540;28;20214;-70
2023/03/09 07:34:05;;;;;;;3.87;1.50;;;;;;;13.18;56.40;95815.81;5058479;28;20186;-70
2023/03/09 07:36:30;;;;;;;8.20;2.20;;;;;;;13.22;55.96;95811.78;5062273;28;20589;-70
2023/03/09 07:38:56;;;;;;;8.57;1.60;;;;;;;13.32;55.95;95821.88;5062314;28;20214;-70
2023/03/09 07:41:21;;;;;;;7.60;1.60;;;;;;;13.41;55.47;95831.25;5054125;28;20240;-69
2023/03/09 07:43:47;;;;;;;6.47;1.80;;;;;;;13.53;55.06;95834.03;5063049;28;20572;-69
2023/03/09 07:46:17;;;;;;;6.00;1.67;;;;;;;13.73;54.28;95834.03;5055398;28;20178;-69
2023/03/09 07:48:43;;;;;;;7.10;2.03;;;;;;;13.48;53.02;95836.50;5061648;28;20175;-69
2023/03/09 07:51:09;;;;;;;2.97;1.30;;;;;;;13.82;52.74;95837.25;5061319;28;20452;-71
2023/03/09 07:53:36;;;;;;;5.53;1.03;;;;;;;13.78;52.45;95847.38;5057315;28;20444;-69
2023/03/09 07:56:03;;;;;;;9.17;1.50;;;;;;;13.86;51.77;95854.22;5053992;28;20421;-70
2023/03/09 07:58:33;;;;;;;5.50;1.60;;;;;;;14.10;51.91;95860.66;5057201;28;20463;-70
2023/03/09 08:00:59;;;;;;;3.90;1.27;;;;;;;14.08;51.09;95872.44;5055353;28;20860;-69
2023/03/09 08:03:25;;;;;;;6.23;1.37;;;;;;;14.26;51.25;95864.66;5059116;28;20449;-71
2023/03/09 08:05:55;;;;;;;3.27;1.53;;;;;;;14.33;50.96;95858.56;5057341;28;20489;-70
2023/03/09 08:08:21;;;;;;;8.43;1.40;;;;;;;14.19;51.27;95865.69;5043366;28;20892;-69
2023/03/09 08:10:48;;;;;;;8.00;1.53;;;;;;;14.37;50.74;95872.94;5047688;28;20434;-70
2023/03/09 08:13:14;;;;;;;5.23;1.60;;;;;;;14.42;50.59;95867.84;5051002;28;20429;-70
2023/03/09 08:15:39;;;;;;;3.93;1.20;;;;;;;14.87;50.35;95880.25;5047630;28;20441;-70
2023/03/09 08:18:05;;;;;;;4.77;1.20;;;;;;;15.09;49.60;95878.09;5035394;28;20215;-70
2023/03/09 08:20:31;;;;;;;4.30;1.17;;;;;;;15.27;48.76;95889.72;5048890;28;20186;-69
2023/03/09 08:22:56;;;;;;;5.67;1.50;;;;;;;15.57;48.08;95886.44;5047817;28;20446;-71
2023/03/09 08:25:22;;;;;;;4.40;1.23;;;;;;;15.68;47.73;95896.31;5048024;28;20179;-70
2023/03/09 08:27:48;;;;;;;2.43;1.10;;;;;;;15.91;46.71;95906.31;5034493;28;20345;-70
2023/03/09 08:30:15;;;;;;;5.70;1.10;;;;;;;15.91;47.18;95892.25;5041000;28;20312;-70
2023/03/09 08:32:40;;;;;;;6.70;1.63;;;;;;;15.98;46.65;95895.66;5046614;28;20969;-71
2023/03/09 08:35:06;;;;;;;4.40;1.20;;;;;;;16.00;46.56;95914.75;5047970;28;20433;-70
2023/03/09 08:37:32;;;;;;;8.00;1.30;;;;;;;15.69;46.98;95913.78;5045224;28;20920;-69
2023/03/09 08:39:57;;;;;;;1.93;1.10;;;;;;;15.79;47.23;95915.94;5040257;28;20426;-71
2023/03/09 08:42:23;;;;;;;3.10;0.93;;;;;;;15.76;47.35;95922.44;5043033;28;20206;-70
2023/03/09 08:44:48;;;;;;;3.83;1.13;;;;;;;15.92;47.49;95928.22;5040858;28;20187;-70
2023/03/09 08:47:13;;;;;;;5.30;1.17;;;;;;;15.62;47.01;95931.50;5036107;28;20171;-71
2023/03/09 08:49:41;;;;;;;3.60;1.40;;;;;;;15.51;48.04;95919.81;5037672;28;20662;-71
2023/03/09 08:52:07;;;;;;;3.60;1.10;;;;;;;15.60;47.76;95936.19;5032342;28;20258;-69
2023/03/09 08:54:32;;;;;;;6.10;1.50;;;;;;;15.72;47.87;95945.03;5039678;28;20437;-71
2023/03/09 08:56:58;;;;;;;5.93;1.83;;;;;;;15.77;48.13;95945.19;5032658;28;20454;-68
2023/03/09 08:59:23;;;;;;;4.60;1.50;;;;;;;15.97;47.79;95954.81;5042142;28;20788;-70
2023/03/09 09:01:49;;;;;;;2.13;1.00;;;;;;;16.16;47.07;95966.22;5032004;28;20188;-70
2023/03/09 09:04:14;;;;;;;3.37;1.20;;;;;;;16.20;46.88;95956.03;5046834;28;20287;-70
2023/03/09 09:06:40;;;;;;;2.90;1.00;;;;;;;16.41;46.23;95955.59;5035997;28;20267;-71
2023/03/09 09:09:05;;;;;;;3.20;1.10;;;;;;;16.25;46.99;95974.69;5033436;28;20187;-69
2023/03/09 09:11:32;;;;;;;7.10;1.90;;;;;;;16.15;47.63;95985.75;5045164;28;20182;-70
2023/03/09 09:13:58;;;;;;;7.57;1.20;;;;;;;16.09;48.64;95990.06;5040355;28;20716;-71
2023/03/09 09:16:27;;;;;;;4.37;1.50;;;;;;;15.79;49.97;95995.97;5041516;28;20421;-70
2023/03/09 09:18:53;;;;;;;2.03;1.00;;;;;;;15.56;50.62;96011.56;5031355;28;20457;-70
2023/03/09 09:21:18;;;;;;;2.70;1.00;;;;;;;15.12;52.59;96019.31;5041801;28;20428;-69
2023/03/09 09:23:44;;;;;;;4.07;1.20;;;;;;;14.45;54.24;96004.50;5037476;28;20248;-69
2023/03/09 09:26:13;;;;;;;4.83;1.43;;;;;;;14.52;54.87;96015.03;5040941;28;20663;-70
2023/03/09 09:28:39;;;;;;;4.30;1.23;;;;;;;15.04;54.88;96012.44;5038342;28;20676;-71
2023/03/09 09:31:05;;;;;;;4.63;1.47;;;;;;;15.35;54.50;96024.88;5042016;28;20428;-70
2023/03/09 09:33:33;;;;;;;2.23;1.00;;;;;;;15.42;53.90;96016.13;5050049;28;20857;-71
2023/03/09 09:36:11;;;;;;;2.70;1.40;;;;;;;15.55;53.25;96016.06;5054711;28;20175;-71
2023/03/09 09:38:37;;;;;;;4.47;1.27;;;;;;;15.14;53.51;96018.06;5039117;28;20456;-70
2023/03/09 09:41:37;;;;;;;7.00;1.57;;;;;;;15.11;53.36;96013.25;5046351;28;20430;-70
2023/03/09 09:44:07;;;;;;;3.43;1.60;;;;;;;15.12;52.15;96022.75;5049404;28;20441;-70
2023/03/09 09:46:34;;;;;;;2.80;1.00;;;;;;;15.03;52.38;96027.47;5044383;28;20482;-70
2023/03/09 09:49:01;;;;;;;6.20;1.00;;;;;;;15.06;52.83;96044.72;5035331;28;20481;-70
2023/03/09 09:51:45;;;;;;;4.47;1.30;;;;;;;15.00;52.31;96042.91;5031007;28;20422;-71
2023/03/09 09:54:33;;;;;;;2.60;0.90;;;;;;;14.57;52.91;96025.75;5039504;28;20992;-70
2023/03/09 09:57:01;;;;;;;2.37;0.93;;;;;;;14.81;52.73;96032.22;5026066;28;20465;-70
2023/03/09 09:59:39;;;;;;;2.30;0.90;;;;;;;14.77;52.76;96038.91;5037792;28;20486;-70
2023/03/09 10:02:07;;;;;;;3.67;1.10;;;;;;;14.66;53.22;96040.34;5041192;28;20432;-71
2023/03/09 10:04:58;;;;;;;3.07;1.00;;;;;;;14.66;52.46;96047.44;5039390;28;20946;-70
2023/03/09 10:07:24;;;;;;;1.53;0.80;;;;;;;14.67;53.55;96062.25;5025626;28;20935;-70
2023/03/09 10:09:53;;;;;;;2.97;0.80;;;;;;;15.18;51.64;96050.16;5030979;28;20864;-71
2023/03/09 10:12:19;;;;;;;2.80;1.10;;;;;;;15.57;50.95;96056.22;5043848;28;20535;-70
2023/03/09 10:14:53;;;;;;;3.73;1.03;;;;;;;15.69;50.32;96061.66;5034605;28;20526;-70
2023/03/09 10:17:31;;;;;;;3.87;0.90;;;;;;;15.20;50.81;96067.41;5039156;28;20254;-70
2023/03/09 10:20:14;;;;;;;1.47;1.10;;;;;;;15.02;51.96;96067.25;5039038;28;20419;-70
2023/03/09 10:22:40;;;;;;;2.80;1.00;;;;;;;15.28;51.56;96065.53;5033560;28;20449;-70
2023/03/09 10:25:13;;;;;;;2.20;0.90;;;;;;;15.23;51.68;96068.00;5036874;28;21239;-69
2023/03/09 10:27:42;;;;;;;3.50;0.87;;;;;;;15.14;51.62;96091.97;5038641;28;20829;-70
2023/03/09 10:30:10;;;;;;;2.03;0.97;;;;;;;15.20;52.00;96070.03;5041718;28;20414;-70
2023/03/09 10:32:57;;;;;;;2.60;0.90;;;;;;;15.39;51.74;96080.69;5048211;28;20498;-70
2023/03/09 10:35:35;;;;;;;1.87;0.87;;;;;;;15.44;51.40;96080.88;5050414;28;20475;-72
2023/03/09 10:38:00;;;;;;;2.40;0.90;;;;;;;15.03;52.02;96074.97;5016307;28;20465;-70
2023/03/09 10:40:44;;;;;;;3.43;0.90;;;;;;;15.61;51.72;96075.91;5006494;28;20951;-70
2023/03/09 10:43:31;;;;;;;1.97;0.70;;;;;;;15.88;49.91;96077.63;5044111;28;20198;-70
2023/03/09 10:46:21;;;;;;;2.40;0.93;;;;;;;16.37;49.00;96068.13;5020072;28;21116;-70
2023/03/09 10:48:49;;;;;;;5.97;1.10;;;;;;;16.82;47.44;96066.25;5015513;28;20525;-70
2023/03/09 10:51:23;;;;;;;13.03;1.10;;;;;;;16.75;47.28;96058.38;5043686;28;20426;-70
2023/03/09 10:53:48;;;;;;;1.97;0.93;;;;;;;17.41;45.67;96057.84;5025190;28;20941;-71
2023/03/09 10:56:23;;;;;;;2.23;0.83;;;;;;;17.88;44.38;96051.91;5043998;28;20426;-70
2023/03/09 10:59:12;;;;;;;3.87;0.90;;;;;;;18.17;43.31;96052.13;5040907;28;20566;-70
2023/03/09 11:01:42;;;;;;;3.50;1.47;;;;;;;18.21;42.59;96048.00;5044805;28;20436;-70
2023/03/09 11:04:26;;;;;;;6.60;1.80;;;;;;;18.33;42.52;96050.63;5033825;28;20494;-70
2023/03/09 11:06:59;;;;;;;5.43;1.20;;;;;;;18.43;42.06;96034.94;5043152;28;20418;-70
2023/03/09 11:09:30;;;;;;;2.30;1.00;;;;;;;18.75;41.19;96037.25;5040044;28;20433;-71
2023/03/09 11:12:25;;;;;;;4.83;1.20;;;;;;;19.10;40.62;96043.53;5042327;28;21042;-70
2023/03/09 11:14:56;;;;;;;5.37;1.10;;;;;;;19.42;40.61;96024.50;5055415;28;20943;-70
2023/03/09 11:17:25;;;;;;;4.27;1.23;;;;;;;19.06;39.41;96045.88;5038191;28;20461;-70
2023/03/09 11:20:22;;;;;;;4.40;1.47;;;;;;;19.12;39.49;96030.84;5040435;28;20426;-71
2023/03/09 11:22:52;;;;;;;6.80;1.50;;;;;;;19.23;38.67;96031.84;5036931;28;20954;-70
2023/03/09 11:25:30;;;;;;;4.07;1.17;;;;;;;19.30;38.84;96027.19;5037790;28;20875;-69
2023/03/09 11:28:01;;;;;;;8.50;1.87;;;;;;;18.85;39.04;96041.94;5039578;28;21049;-70
2023/03/09 11:30:27;;;;;;;4.50;1.20;;;;;;;19.34;38.58;96034.47;5037692;28;20434;-70
2023/03/09 11:32:53;;;;;;;4.63;1.20;;;;;;;19.48;38.53;96021.72;5040498;28;20456;-71
2023/03/09 11:35:21;;;;;;;2.70;1.10;;;;;;;18.87;38.26;96042.53;5043830;28;21295;-69